METAR Data
IDs: Format: Raw Decoded Include TAF

Data at: 1914 UTC 26 Sep 2021

EKBI 261850Z AUTO 10007KT 9999 SCT041/// 16/15 Q1016